Time;durP1;ratioP1;P1;durP2;ratioP2;P2;SDS_P1;SDS_P2;PMS_P1;PMS_P2;Temp;Humidity;BMP_temperature;BMP_pressure;BME280_temperature;BME280_humidity;BME280_pressure;Samples;Min_cycle;Max_cycle;Signal;HPM_P1;HPM_P2
2021/12/21 02:27:27;;;;;;;753.05;699.05;;;-4.10;99.90;;;;;;4890289;23;20256;-79
2021/12/21 02:29:54;;;;;;;739.78;686.67;;;-4.40;99.90;;;;;;5025490;28;20222;-79
2021/12/21 02:32:22;;;;;;;753.40;699.92;;;-4.20;99.90;;;;;;5027201;28;20214;-81
2021/12/21 02:34:49;;;;;;;700.72;649.67;;;-4.30;99.90;;;;;;5029226;28;20196;-79
2021/12/21 02:37:16;;;;;;;724.25;671.42;;;-4.30;99.90;;;;;;5028277;28;20206;-79
2021/12/21 02:39:43;;;;;;;738.42;685.75;;;-4.30;99.90;;;;;;5029512;28;20195;-80
2021/12/21 02:42:10;;;;;;;736.20;684.05;;;-4.30;99.90;;;;;;5029225;28;20284;-79
2021/12/21 02:44:39;;;;;;;736.13;683.80;;;-4.20;99.90;;;;;;5029541;28;20209;-80
2021/12/21 02:47:06;;;;;;;715.97;663.45;;;-4.40;99.90;;;;;;5029271;28;20686;-80
2021/12/21 02:49:33;;;;;;;718.92;666.47;;;-4.40;99.90;;;;;;5029461;28;20262;-80
2021/12/21 02:52:00;;;;;;;720.17;668.08;;;-4.40;99.90;;;;;;5029502;28;20198;-79
2021/12/21 02:54:27;;;;;;;726.75;674.45;;;-4.50;99.90;;;;;;5029041;28;20195;-79
2021/12/21 02:56:54;;;;;;;728.50;676.15;;;-4.40;99.90;;;;;;5029117;28;20265;-79
2021/12/21 02:59:21;;;;;;;734.92;683.17;;;-4.40;99.90;;;;;;5029594;28;20198;-80
2021/12/21 03:01:49;;;;;;;731.50;678.50;;;-4.40;99.90;;;;;;5028910;28;20203;-80
2021/12/21 03:04:16;;;;;;;723.42;671.40;;;-4.40;99.90;;;;;;5029368;28;20285;-81
2021/12/21 03:09:39;;;;;;;727.17;674.60;;;-4.20;99.90;;;;;;4995099;28;20195;-81
2021/12/21 03:12:28;;;;;;;739.00;686.10;;;-4.20;99.90;;;;;;5028429;28;20205;-80
2021/12/21 03:14:54;;;;;;;736.83;683.95;;;-4.30;99.90;;;;;;5027888;28;20186;-79
2021/12/21 03:17:23;;;;;;;732.17;679.47;;;-4.40;99.90;;;;;;5028525;28;20269;-80
2021/12/21 03:19:50;;;;;;;747.58;692.45;;;-4.30;99.90;;;;;;5028207;28;20521;-81
2021/12/21 03:22:17;;;;;;;747.30;692.53;;;-4.40;99.90;;;;;;5028325;28;20245;-80
2021/12/21 03:24:45;;;;;;;746.70;693.10;;;-4.30;99.90;;;;;;5027372;28;20211;-80
2021/12/21 03:27:12;;;;;;;733.13;680.80;;;-4.20;99.90;;;;;;5027880;28;20241;-80
2021/12/21 03:29:39;;;;;;;731.88;679.97;;;-4.30;99.90;;;;;;5028842;28;20540;-80
2021/12/21 03:32:07;;;;;;;738.47;686.63;;;-4.30;99.90;;;;;;5029207;28;20266;-80
2021/12/21 03:34:35;;;;;;;708.92;657.58;;;-4.30;99.90;;;;;;5028644;28;20226;-80
2021/12/21 03:37:04;;;;;;;721.67;670.63;;;-4.20;99.90;;;;;;5029678;28;20210;-80
2021/12/21 03:39:31;;;;;;;709.35;658.58;;;-4.30;99.90;;;;;;5028926;28;20203;-79
2021/12/21 03:42:00;;;;;;;719.30;667.08;;;-4.30;99.90;;;;;;5029352;28;20258;-80
2021/12/21 03:44:27;;;;;;;709.88;658.65;;;-4.40;99.90;;;;;;5027534;28;20198;-79
2021/12/21 03:46:56;;;;;;;708.08;657.33;;;-4.40;99.90;;;;;;5027711;28;20406;-80
2021/12/21 03:52:15;;;;;;;719.42;667.67;;;-4.30;99.90;;;;;;5022904;28;20202;-80
2021/12/21 03:54:44;;;;;;;704.60;653.38;;;-4.30;99.90;;;;;;5023294;28;20305;-80
2021/12/21 03:57:11;;;;;;;711.28;660.00;;;-4.40;99.90;;;;;;5027566;28;20301;-81
2021/12/21 03:59:38;;;;;;;686.42;636.58;;;-4.60;99.90;;;;;;5026954;28;20218;-80
2021/12/21 04:02:07;;;;;;;685.03;635.75;;;-4.50;99.90;;;;;;5026633;28;20230;-80
2021/12/21 04:04:33;;;;;;;684.20;634.45;;;-4.50;99.90;;;;;;5026557;28;20202;-79
2021/12/21 04:07:01;;;;;;;679.88;630.40;;;-4.80;99.90;;;;;;5027784;28;20202;-80
2021/12/21 04:09:29;;;;;;;681.13;630.80;;;-4.80;99.90;;;;;;5026639;28;20202;-80
2021/12/21 04:11:55;;;;;;;686.67;636.13;;;-4.60;99.90;;;;;;5026687;28;20210;-80
2021/12/21 04:14:22;;;;;;;682.50;632.85;;;-4.40;99.90;;;;;;5027415;28;20295;-80
2021/12/21 04:16:51;;;;;;;674.30;624.35;;;-4.50;99.90;;;;;;5027090;28;20199;-80
2021/12/21 04:19:18;;;;;;;684.35;634.47;;;-4.50;99.90;;;;;;5027286;28;20237;-80
2021/12/21 04:21:45;;;;;;;671.38;622.40;;;-4.50;99.90;;;;;;5027362;28;20236;-81
2021/12/21 04:24:12;;;;;;;665.85;616.95;;;-4.50;99.90;;;;;;5026769;28;20195;-80
2021/12/21 04:26:41;;;;;;;651.10;602.88;;;-4.60;99.90;;;;;;5027019;28;20241;-80
2021/12/21 04:29:07;;;;;;;649.05;601.15;;;-4.50;99.90;;;;;;5026733;28;20289;-80
2021/12/21 04:31:34;;;;;;;640.75;592.88;;;-4.60;99.90;;;;;;5027080;28;20252;-81
2021/12/21 04:34:01;;;;;;;634.10;587.03;;;-4.60;99.90;;;;;;5025626;28;20588;-79
2021/12/21 04:36:30;;;;;;;643.58;595.30;;;-4.60;99.90;;;;;;5025849;28;20202;-80
2021/12/21 04:38:58;;;;;;;667.45;618.05;;;-4.70;99.90;;;;;;5026876;28;20241;-80
2021/12/21 04:41:27;;;;;;;674.83;625.78;;;-5.20;99.90;;;;;;5027131;28;20258;-80
2021/12/21 04:43:57;;;;;;;659.80;611.30;;;-4.70;99.90;;;;;;5027684;28;20330;-80
2021/12/21 04:46:25;;;;;;;673.42;624.25;;;-4.70;99.90;;;;;;5026850;28;20232;-80
2021/12/21 04:48:53;;;;;;;668.85;620.92;;;-4.70;99.90;;;;;;5027199;28;20222;-81
2021/12/21 04:51:21;;;;;;;657.38;610.38;;;-4.70;99.90;;;;;;5026156;28;20301;-80
2021/12/21 04:53:48;;;;;;;662.47;614.13;;;-4.90;99.90;;;;;;5026179;28;20195;-80
2021/12/21 04:56:15;;;;;;;662.80;614.88;;;-5.10;99.90;;;;;;5025516;28;20199;-80
2021/12/21 04:58:42;;;;;;;634.38;587.85;;;-4.80;99.90;;;;;;5026273;28;20250;-80
2021/12/21 05:01:10;;;;;;;655.80;608.28;;;-4.90;99.90;;;;;;5026219;28;20203;-78
2021/12/21 05:03:37;;;;;;;663.20;615.50;;;-5.00;99.90;;;;;;5027539;28;20210;-80
2021/12/21 05:06:04;;;;;;;658.33;610.05;;;-5.00;99.90;;;;;;5026415;28;20262;-80
2021/12/21 05:08:35;;;;;;;653.35;605.40;;;-5.30;99.90;;;;;;5025753;28;20210;-80
2021/12/21 05:11:04;;;;;;;638.65;592.55;;;-5.30;99.90;;;;;;5026710;28;20242;-80
2021/12/21 05:13:34;;;;;;;640.55;593.88;;;-5.00;99.90;;;;;;5026688;28;20200;-79
2021/12/21 05:16:01;;;;;;;652.38;605.30;;;-5.50;99.90;;;;;;5025595;28;20209;-81
2021/12/21 05:18:32;;;;;;;652.17;604.70;;;-5.10;99.90;;;;;;5024608;28;20214;-80
2021/12/21 05:21:00;;;;;;;643.67;595.88;;;-5.10;99.90;;;;;;5022939;28;20461;-80
2021/12/21 05:23:27;;;;;;;651.65;605.10;;;-5.10;99.90;;;;;;5025573;28;20194;-80
2021/12/21 05:25:54;;;;;;;631.05;585.45;;;-5.00;99.90;;;;;;5024781;28;20741;-80
2021/12/21 05:28:21;;;;;;;622.30;577.30;;;-5.10;99.90;;;;;;5025811;28;20309;-80
2021/12/21 05:30:48;;;;;;;623.67;577.03;;;-5.00;99.90;;;;;;5027250;28;20222;-79
2021/12/21 05:33:15;;;;;;;627.47;580.33;;;-5.10;99.90;;;;;;5025505;28;20654;-80
2021/12/21 05:35:43;;;;;;;629.15;582.45;;;-5.00;99.90;;;;;;5026370;28;20281;-81
2021/12/21 05:38:13;;;;;;;627.13;580.90;;;-5.10;99.90;;;;;;5025709;28;20222;-80
2021/12/21 05:40:42;;;;;;;612.80;567.00;;;-4.90;99.90;;;;;;5022619;28;20198;-81
2021/12/21 05:43:11;;;;;;;597.47;552.67;;;-5.00;99.90;;;;;;5026192;28;20225;-80
2021/12/21 05:45:38;;;;;;;606.63;560.92;;;-5.10;99.90;;;;;;5026234;28;20198;-80
2021/12/21 05:48:06;;;;;;;623.72;577.05;;;-5.30;99.90;;;;;;5026941;28;20225;-80
2021/12/21 05:50:33;;;;;;;644.72;598.03;;;-5.40;99.90;;;;;;5027571;28;20226;-81
2021/12/21 05:53:01;;;;;;;648.90;601.97;;;-5.00;99.90;;;;;;5028142;28;20253;-81
2021/12/21 05:55:28;;;;;;;626.83;580.47;;;-5.00;99.90;;;;;;5028463;28;20265;-81
2021/12/21 05:57:56;;;;;;;624.38;578.03;;;-5.00;99.90;;;;;;5028752;28;20220;-80
2021/12/21 06:00:26;;;;;;;610.05;564.13;;;-4.90;99.90;;;;;;5027814;28;20205;-81
2021/12/21 06:02:56;;;;;;;619.72;573.80;;;-5.00;99.90;;;;;;5029715;28;20222;-81
2021/12/21 06:05:24;;;;;;;637.45;591.35;;;-5.00;99.90;;;;;;5029062;28;20194;-81
2021/12/21 06:07:53;;;;;;;621.83;576.03;;;-5.10;99.90;;;;;;5028663;28;20214;-81
2021/12/21 06:10:27;;;;;;;628.78;582.60;;;-5.40;99.90;;;;;;5027124;28;20206;-80
2021/12/21 06:13:18;;;;;;;620.17;575.20;;;-5.20;99.90;;;;;;5027643;28;20375;-80
2021/12/21 06:15:56;;;;;;;625.88;579.78;;;-5.10;99.90;;;;;;5027621;28;20197;-82
2021/12/21 06:24:57;;;;;;;612.08;566.35;;;-5.20;99.90;;;;;;5026821;28;20200;-81
2021/12/21 06:26:56;;;;;;;621.47;575.20;;;-5.10;99.90;;;;;;5027224;28;20213;-81
2021/12/21 06:29:24;;;;;;;604.53;559.95;;;-5.20;99.90;;;;;;5028572;28;20544;-81
2021/12/21 06:31:51;;;;;;;620.60;576.33;;;-5.10;99.90;;;;;;5028774;28;20245;-80
2021/12/21 06:34:19;;;;;;;620.90;576.15;;;-5.20;99.90;;;;;;5026407;28;20597;-81
2021/12/21 06:36:46;;;;;;;607.75;564.63;;;-5.20;99.90;;;;;;5028488;28;20241;-81
2021/12/21 06:39:13;;;;;;;603.35;559.47;;;-5.30;99.90;;;;;;5028100;28;20687;-81
2021/12/21 06:41:41;;;;;;;644.33;596.35;;;-5.30;99.90;;;;;;5028480;28;20225;-80
2021/12/21 06:44:12;;;;;;;624.67;579.35;;;-5.10;99.90;;;;;;5027506;28;20583;-81
2021/12/21 06:46:52;;;;;;;617.40;572.97;;;-5.10;99.90;;;;;;5025945;28;20195;-82
2021/12/21 06:52:04;;;;;;;611.47;566.95;;;-5.20;99.90;;;;;;5027506;28;20237;-81
2021/12/21 06:54:31;;;;;;;607.60;563.22;;;-5.40;99.90;;;;;;5028401;28;20194;-81
2021/12/21 06:56:58;;;;;;;601.55;556.58;;;-5.40;99.90;;;;;;5027092;28;20198;-81
2021/12/21 06:59:27;;;;;;;610.47;566.35;;;-5.40;99.90;;;;;;5027635;28;20266;-80
2021/12/21 07:01:54;;;;;;;626.55;581.08;;;-5.50;99.90;;;;;;5027708;28;20205;-80
2021/12/21 07:04:21;;;;;;;625.42;580.10;;;-5.40;99.90;;;;;;5026775;28;20734;-81
2021/12/21 07:06:49;;;;;;;612.05;566.22;;;-5.30;99.90;;;;;;5023824;28;20561;-81
2021/12/21 07:09:21;;;;;;;609.80;566.00;;;-5.30;99.90;;;;;;5025626;28;20187;-81
2021/12/21 07:11:57;;;;;;;609.60;563.47;;;-5.30;99.90;;;;;;5024490;28;20214;-80
2021/12/21 07:19:55;;;;;;;603.95;559.15;;;-5.20;99.90;;;;;;5029419;28;20186;-81
2021/12/21 07:22:22;;;;;;;596.38;552.67;;;-5.50;99.90;;;;;;5028843;28;20195;-81
2021/12/21 07:24:48;;;;;;;608.03;563.85;;;-5.30;99.90;;;;;;5027172;28;20202;-81
2021/12/21 07:27:16;;;;;;;614.50;570.25;;;-5.30;99.90;;;;;;5028928;28;20226;-80
2021/12/21 07:29:42;;;;;;;614.58;569.40;;;-5.40;99.90;;;;;;5029131;28;20257;-81
2021/12/21 07:32:11;;;;;;;615.08;569.65;;;-5.20;99.90;;;;;;5025953;28;20210;-80
2021/12/21 07:34:37;;;;;;;612.85;568.00;;;-5.10;99.90;;;;;;5018098;28;20206;-80
2021/12/21 07:37:09;;;;;;;637.58;591.00;;;-5.10;99.90;;;;;;5018536;28;20221;-80
2021/12/21 07:39:36;;;;;;;618.88;573.17;;;-5.00;99.90;;;;;;5018685;28;20225;-79
2021/12/21 07:42:03;;;;;;;618.08;572.72;;;-5.00;99.90;;;;;;5018438;28;20202;-79
2021/12/21 07:44:30;;;;;;;611.95;565.58;;;-5.20;99.90;;;;;;5017769;28;20215;-79
2021/12/21 07:46:56;;;;;;;594.65;550.00;;;-4.90;99.90;;;;;;5017474;28;20213;-78
2021/12/21 07:49:25;;;;;;;586.33;542.00;;;-5.00;99.90;;;;;;5018208;28;20194;-80
2021/12/21 07:51:52;;;;;;;574.88;532.25;;;-5.00;99.90;;;;;;5017780;28;20222;-78
2021/12/21 07:54:19;;;;;;;594.47;549.88;;;-5.00;99.90;;;;;;5017708;28;20205;-80
2021/12/21 07:56:46;;;;;;;601.38;555.35;;;-5.00;99.90;;;;;;5016222;28;20851;-79
2021/12/21 07:59:12;;;;;;;620.65;573.70;;;-5.00;99.90;;;;;;5017706;28;20199;-80
2021/12/21 08:01:40;;;;;;;610.30;563.38;;;-4.80;99.90;;;;;;5016381;28;20201;-78
2021/12/21 08:04:07;;;;;;;608.17;562.53;;;-4.80;99.90;;;;;;5017193;28;20210;-78
2021/12/21 08:06:36;;;;;;;608.17;561.97;;;-4.70;99.90;;;;;;5016186;28;20198;-79
2021/12/21 08:09:05;;;;;;;595.47;548.90;;;-4.70;99.90;;;;;;5016793;28;20215;-79
2021/12/21 08:14:13;;;;;;;578.90;535.35;;;-4.70;99.90;;;;;;5016980;28;20193;-79
2021/12/21 08:16:40;;;;;;;574.70;530.38;;;-4.70;99.90;;;;;;5018735;28;20655;-80
2021/12/21 08:19:07;;;;;;;610.63;563.28;;;-4.80;99.90;;;;;;5016674;28;20459;-80
2021/12/21 08:21:35;;;;;;;602.47;557.17;;;-4.70;99.90;;;;;;5017842;28;20570;-80
2021/12/21 08:24:02;;;;;;;607.92;562.28;;;-4.70;99.90;;;;;;5016317;28;20212;-80
2021/12/21 08:26:29;;;;;;;610.45;564.08;;;-4.80;99.90;;;;;;5017401;28;20194;-79
2021/12/21 08:29:03;;;;;;;609.65;563.65;;;-4.70;99.90;;;;;;5038131;23;20235;-82
2021/12/21 08:31:52;;;;;;;609.20;561.17;;;-4.60;99.90;;;;;;4996594;28;20272;-82
2021/12/21 08:37:48;;;;;;;611.25;565.08;;;-4.60;99.90;;;;;;4999065;28;20660;-82
2021/12/21 08:40:38;;;;;;;607.20;560.45;;;-4.50;99.90;;;;;;4998887;28;20206;-82
2021/12/21 08:43:33;;;;;;;603.67;557.08;;;-4.30;99.90;;;;;;4999663;28;20257;-82
2021/12/21 08:46:30;;;;;;;;;;;;;;;;;;;;;
2021/12/21 08:52:09;;;;;;;622.42;574.47;;;-4.10;99.90;;;;;;4880128;29;20223;-82
2021/12/21 08:54:57;;;;;;;649.45;601.05;;;-4.00;99.90;;;;;;4936736;29;20272;-82
2021/12/21 08:57:30;;;;;;;649.38;599.55;;;-4.00;99.90;;;;;;4997072;28;20199;-82
2021/12/21 09:00:24;;;;;;;659.45;610.60;;;-3.80;99.90;;;;;;4996755;28;20210;-82
2021/12/21 09:03:26;;;;;;;669.92;620.17;;;-3.70;99.90;;;;;;4996266;28;20203;-82
2021/12/21 09:06:07;;;;;;;654.25;605.05;;;-3.60;99.90;;;;;;4975885;28;20285;-82
2021/12/21 09:11:45;;;;;;;674.22;623.63;;;-3.50;99.90;;;;;;4995897;28;20279;-82
2021/12/21 09:14:32;;;;;;;682.55;631.75;;;-3.40;99.90;;;;;;4995449;28;20217;-82
2021/12/21 09:24:51;;;;;;;693.20;641.45;;;-3.10;99.90;;;;;;4924944;29;20220;-82
2021/12/21 10:09:03;;;;;;;831.92;770.42;;;-1.00;99.90;;;;;;4856903;29;20595;-83
2021/12/21 10:12:30;;;;;;;;;;;;;;;;;;;;;
2021/12/21 10:30:03;;;;;;;827.20;761.70;;;-0.40;99.90;;;;;;4987580;28;20597;-83
2021/12/21 10:36:56;;;;;;;835.00;769.90;;;-0.30;99.90;;;;;;4929656;29;20445;-83
2021/12/21 11:04:22;;;;;;;805.80;741.93;;;0.10;99.90;;;;;;4812540;29;20200;-83
2021/12/21 11:23:40;;;;;;;771.33;713.03;;;0.40;99.90;;;;;;4978666;28;20479;-84
2021/12/21 11:26:44;;;;;;;783.30;724.00;;;0.50;99.90;;;;;;5011073;28;20458;-84
2021/12/21 11:33:35;;;;;;;769.40;705.60;;;0.60;99.90;;;;;;5005520;28;20679;-84
2021/12/21 11:39:10;;;;;;;659.80;616.47;;;1.50;99.90;;;;;;5007371;28;20465;-81
2021/12/21 11:41:43;;;;;;;471.93;449.53;;;2.40;99.90;;;;;;5009790;28;20449;-83
2021/12/21 11:44:28;;;;;;;180.50;171.90;;;2.90;99.90;;;;;;5011666;28;20453;-82
2021/12/21 13:46:16;;;;;;;12.23;4.53;;;6.50;40.50;;;;;;4978064;28;20856;-81
2021/12/21 13:48:52;;;;;;;9.03;4.30;;;5.60;43.90;;;;;;4977482;28;20467;-82
2021/12/21 13:51:19;;;;;;;11.17;4.90;;;4.80;48.10;;;;;;4978522;28;20458;-82
2021/12/21 13:53:48;;;;;;;6.53;4.00;;;4.30;52.70;;;;;;4979174;28;20447;-81
2021/12/21 14:16:31;;;;;;;8.37;4.50;;;2.10;71.20;;;;;;4976495;28;20411;-84
2021/12/21 14:19:02;;;;;;;13.57;4.83;;;1.80;73.80;;;;;;4977364;28;20510;-84
2021/12/21 14:21:31;;;;;;;9.07;4.87;;;1.80;74.40;;;;;;4977110;28;20451;-83
2021/12/21 14:24:01;;;;;;;9.13;4.90;;;1.70;76.50;;;;;;4977144;28;20482;-83
2021/12/21 14:26:30;;;;;;;8.77;4.70;;;1.60;76.20;;;;;;4977351;28;20459;-83
2021/12/21 14:29:00;;;;;;;9.63;4.20;;;1.50;77.60;;;;;;4977180;28;20475;-83
2021/12/21 14:31:32;;;;;;;10.20;4.80;;;1.20;80.50;;;;;;4977932;28;20461;-84
2021/12/21 14:34:01;;;;;;;10.00;6.37;;;1.10;82.60;;;;;;4977286;28;20502;-84
2021/12/21 14:36:29;;;;;;;10.10;6.40;;;0.90;85.50;;;;;;4977447;28;20891;-83
2021/12/21 14:39:02;;;;;;;15.27;9.23;;;0.70;88.50;;;;;;4977049;28;20506;-83
2021/12/21 14:41:32;;;;;;;10.17;8.57;;;0.50;90.60;;;;;;4977317;28;20459;-84
2021/12/21 14:44:06;;;;;;;8.93;7.23;;;0.50;93.70;;;;;;4977407;28;20483;-83
2021/12/21 14:46:36;;;;;;;8.83;7.73;;;0.50;93.80;;;;;;4977203;28;20454;-84
2021/12/21 14:49:07;;;;;;;9.03;7.53;;;0.50;93.60;;;;;;4976457;28;20494;-83
2021/12/21 14:51:48;;;;;;;9.90;8.90;;;0.60;93.40;;;;;;4977064;28;20466;-83
2021/12/21 14:54:23;;;;;;;16.20;10.53;;;0.50;94.00;;;;;;4976698;28;20469;-84
2021/12/21 14:56:51;;;;;;;11.97;9.17;;;0.40;94.40;;;;;;4976890;28;20463;-83
2021/12/21 14:59:17;;;;;;;18.50;10.53;;;0.40;94.40;;;;;;4976341;28;21021;-84
2021/12/21 15:01:53;;;;;;;11.30;9.07;;;0.30;94.30;;;;;;4976923;28;20455;-84
2021/12/21 15:04:25;;;;;;;12.00;10.23;;;0.20;95.00;;;;;;4980994;28;20474;-84
2021/12/21 15:06:52;;;;;;;13.53;8.57;;;0.10;96.10;;;;;;4993444;28;20454;-84
2021/12/21 15:09:20;;;;;;;12.73;10.10;;;0.20;96.00;;;;;;4985467;28;20479;-82
2021/12/21 15:11:49;;;;;;;11.80;10.20;;;0.10;96.10;;;;;;4992774;28;20458;-83
2021/12/21 15:14:16;;;;;;;10.57;9.60;;;0.10;96.20;;;;;;4997061;28;20513;-84
2021/12/21 15:16:43;;;;;;;10.13;9.00;;;0.10;96.60;;;;;;4988699;28;20459;-84
2021/12/21 15:19:12;;;;;;;10.40;9.33;;;0.10;96.30;;;;;;4975494;28;20511;-85
2021/12/21 15:21:38;;;;;;;14.40;10.63;;;0.10;96.00;;;;;;4985048;28;20450;-85
2021/12/21 15:24:06;;;;;;;11.13;8.83;;;0.00;95.80;;;;;;4976111;28;20486;-84
2021/12/21 15:26:33;;;;;;;10.17;8.60;;;-0.10;96.10;;;;;;4986099;28;20803;-84
2021/12/21 15:29:00;;;;;;;11.40;7.83;;;0.00;95.20;;;;;;4977819;28;20474;-84
2021/12/21 15:31:29;;;;;;;11.67;8.00;;;0.00;94.20;;;;;;4976789;28;20958;-84
2021/12/21 15:33:56;;;;;;;10.50;7.05;;;0.10;94.40;;;;;;4976683;28;20555;-84
2021/12/21 15:36:25;;;;;;;10.07;9.17;;;-0.20;94.90;;;;;;4980675;28;20196;-85
2021/12/21 15:38:53;;;;;;;13.67;12.47;;;-0.50;96.90;;;;;;4987779;28;20573;-83
2021/12/21 15:41:20;;;;;;;26.70;24.63;;;-0.70;99.30;;;;;;4990298;28;20517;-83
2021/12/21 15:43:47;;;;;;;43.00;40.57;;;-0.80;99.90;;;;;;4989074;28;20482;-84
2021/12/21 15:46:15;;;;;;;68.23;64.33;;;-1.10;99.90;;;;;;4979489;28;20465;-85
2021/12/21 15:48:44;;;;;;;132.03;126.63;;;-1.30;99.90;;;;;;4980199;28;20470;-84
2021/12/21 15:51:12;;;;;;;150.13;144.27;;;-1.40;99.90;;;;;;4979546;28;20459;-83
2021/12/21 15:53:41;;;;;;;216.13;208.43;;;-1.60;99.90;;;;;;4983035;28;20187;-83
2021/12/21 15:56:09;;;;;;;375.40;361.67;;;-1.70;99.90;;;;;;4992029;28;20461;-84
2021/12/21 15:58:36;;;;;;;415.05;398.88;;;-1.90;99.90;;;;;;4992212;28;20202;-85
2021/12/21 16:01:05;;;;;;;441.88;424.95;;;-2.00;99.90;;;;;;4998323;28;20198;-83
2021/12/21 16:03:32;;;;;;;450.05;432.83;;;-2.20;99.90;;;;;;4990925;28;20218;-84
2021/12/21 16:05:59;;;;;;;510.10;489.00;;;-2.30;99.90;;;;;;4989072;28;20579;-83
2021/12/21 16:08:25;;;;;;;582.60;557.17;;;-2.40;99.90;;;;;;4997274;28;20221;-83
2021/12/21 16:10:53;;;;;;;619.10;589.67;;;-2.40;99.90;;;;;;4997857;28;20207;-83
2021/12/21 16:13:20;;;;;;;663.05;629.10;;;-2.40;99.90;;;;;;4989226;28;20200;-83
2021/12/21 16:15:47;;;;;;;657.28;622.42;;;-2.50;99.90;;;;;;4977911;28;20203;-83
2021/12/21 16:18:14;;;;;;;660.05;624.35;;;-2.50;99.90;;;;;;4978653;28;20204;-83
2021/12/21 16:20:41;;;;;;;710.92;671.45;;;-2.70;99.90;;;;;;4995368;28;20601;-84
2021/12/21 16:23:08;;;;;;;741.25;699.13;;;-2.60;99.90;;;;;;4991037;28;20694;-83
2021/12/21 16:25:35;;;;;;;760.03;717.30;;;-2.70;99.90;;;;;;4984677;28;20579;-83
2021/12/21 16:28:03;;;;;;;762.67;719.53;;;-2.70;99.90;;;;;;4996421;28;20191;-83
2021/12/21 16:30:46;;;;;;;771.20;728.13;;;-2.70;99.90;;;;;;4997574;28;20350;-83
2021/12/21 16:33:13;;;;;;;795.80;749.85;;;-2.80;99.90;;;;;;5000619;28;20205;-83
2021/12/21 16:35:41;;;;;;;794.35;747.33;;;-2.90;99.90;;;;;;5001471;28;20257;-83
2021/12/21 16:38:08;;;;;;;792.08;745.65;;;-2.90;99.90;;;;;;4999751;28;20199;-82
2021/12/21 16:40:36;;;;;;;800.05;752.47;;;-2.80;99.90;;;;;;4986610;28;20304;-83
2021/12/21 16:43:04;;;;;;;753.53;705.20;;;-2.90;99.90;;;;;;4987801;28;20253;-82
2021/12/21 16:45:31;;;;;;;782.42;731.67;;;-3.00;99.90;;;;;;4980119;28;20196;-83
2021/12/21 16:48:00;;;;;;;790.03;738.42;;;-3.10;99.90;;;;;;4987598;28;20210;-84
2021/12/21 16:50:27;;;;;;;789.88;736.63;;;-3.10;99.90;;;;;;4985653;28;20219;-84
2021/12/21 16:52:54;;;;;;;796.38;741.33;;;-3.00;99.90;;;;;;4980447;28;20228;-83
2021/12/21 16:55:23;;;;;;;772.10;718.25;;;-3.00;99.90;;;;;;4996779;28;20206;-83
2021/12/21 16:57:50;;;;;;;752.17;698.75;;;-3.10;99.90;;;;;;4994656;28;20237;-83
2021/12/21 17:00:19;;;;;;;751.45;697.97;;;-3.10;99.90;;;;;;4980647;28;20219;-83
2021/12/21 17:02:47;;;;;;;746.47;692.58;;;-3.10;99.90;;;;;;4995247;28;20199;-83
2021/12/21 17:05:15;;;;;;;747.88;693.78;;;-3.10;99.90;;;;;;4978250;28;20219;-83
2021/12/21 17:07:42;;;;;;;756.78;702.30;;;-3.20;99.90;;;;;;4978811;28;20199;-83
2021/12/21 17:10:10;;;;;;;731.05;678.30;;;-3.10;99.90;;;;;;4991554;28;20212;-83
2021/12/21 17:12:38;;;;;;;736.28;682.85;;;-3.20;99.90;;;;;;4987512;28;20675;-83
2021/12/21 17:15:08;;;;;;;743.95;690.65;;;-3.20;99.90;;;;;;4997323;28;20195;-82
2021/12/21 17:17:36;;;;;;;746.17;692.15;;;-3.20;99.90;;;;;;4996872;28;20218;-83
2021/12/21 17:20:04;;;;;;;747.80;694.05;;;-3.10;99.90;;;;;;4985044;28;20219;-83
2021/12/21 17:22:31;;;;;;;752.58;699.03;;;-3.00;99.90;;;;;;4978714;28;20207;-82
2021/12/21 17:24:57;;;;;;;748.28;695.22;;;-3.00;99.90;;;;;;4989343;28;20565;-83
2021/12/21 17:27:24;;;;;;;757.38;703.65;;;-3.00;99.90;;;;;;4998307;28;20207;-83
2021/12/21 17:29:51;;;;;;;756.53;703.63;;;-3.00;99.90;;;;;;4992977;28;20223;-84
2021/12/21 17:32:19;;;;;;;783.45;728.75;;;-3.00;99.90;;;;;;4993266;28;20196;-84
2021/12/21 17:34:47;;;;;;;780.97;725.13;;;-2.90;99.90;;;;;;4983716;28;20218;-84
2021/12/21 17:37:16;;;;;;;780.75;725.10;;;-2.90;99.90;;;;;;4983433;28;20227;-83
2021/12/21 17:39:43;;;;;;;777.70;721.80;;;-3.10;99.90;;;;;;4985475;28;20232;-84
2021/12/21 17:42:12;;;;;;;758.05;703.70;;;-3.10;99.90;;;;;;4977743;28;20191;-83
2021/12/21 17:44:39;;;;;;;771.58;716.55;;;-3.10;99.90;;;;;;4979232;28;20632;-84
2021/12/21 17:47:06;;;;;;;762.42;707.65;;;-3.20;99.90;;;;;;4974596;28;20195;-83
2021/12/21 17:49:32;;;;;;;749.13;695.58;;;-3.20;99.90;;;;;;4973292;28;20260;-83
2021/12/21 17:52:01;;;;;;;751.85;698.60;;;-3.20;99.90;;;;;;4974178;28;20262;-83
2021/12/21 17:54:29;;;;;;;757.28;703.88;;;-3.30;99.90;;;;;;4993125;28;20663;-83
2021/12/21 17:56:56;;;;;;;762.95;708.88;;;-3.20;99.90;;;;;;4991568;28;20195;-83
2021/12/21 17:59:23;;;;;;;756.20;702.50;;;-3.30;99.90;;;;;;4992721;28;20222;-84
2021/12/21 18:01:50;;;;;;;769.72;715.55;;;-3.30;99.90;;;;;;4991949;28;20199;-83
2021/12/21 18:04:18;;;;;;;753.65;699.63;;;-3.30;99.90;;;;;;4992623;28;20644;-83
2021/12/21 18:06:44;;;;;;;763.50;709.00;;;-3.30;99.90;;;;;;4981284;28;20203;-84
2021/12/21 18:09:13;;;;;;;752.03;697.97;;;-3.40;99.90;;;;;;4992327;28;20214;-85
2021/12/21 18:11:40;;;;;;;782.17;726.42;;;-3.50;99.90;;;;;;4988548;28;20202;-83
2021/12/21 18:14:07;;;;;;;770.92;715.95;;;-3.50;99.90;;;;;;4982147;28;20223;-83
2021/12/21 18:16:34;;;;;;;771.05;715.72;;;-3.50;99.90;;;;;;4984320;28;20229;-83
2021/12/21 18:19:02;;;;;;;787.67;732.47;;;-3.40;99.90;;;;;;4975966;28;20227;-84
2021/12/21 18:21:28;;;;;;;773.22;718.00;;;-3.50;99.90;;;;;;4974630;28;20632;-83
2021/12/21 18:23:55;;;;;;;772.45;717.33;;;-3.50;99.90;;;;;;4989742;28;20195;-83
2021/12/21 18:26:24;;;;;;;771.67;717.42;;;-3.50;99.90;;;;;;4975449;28;20187;-84
2021/12/21 18:28:50;;;;;;;783.97;727.92;;;-3.40;99.90;;;;;;4985212;28;20211;-84
2021/12/21 18:31:17;;;;;;;780.25;725.00;;;-3.40;99.90;;;;;;4992286;28;20392;-83
2021/12/21 18:33:44;;;;;;;784.83;729.00;;;-3.40;99.90;;;;;;4984035;28;20190;-84
2021/12/21 18:36:11;;;;;;;774.08;719.53;;;-3.40;99.90;;;;;;4987390;28;20202;-83
2021/12/21 18:38:41;;;;;;;765.35;710.47;;;-3.40;99.90;;;;;;4996070;28;20643;-83
2021/12/21 18:41:08;;;;;;;764.25;709.38;;;-3.40;99.90;;;;;;4992796;28;20199;-83
2021/12/21 18:43:36;;;;;;;766.42;711.28;;;-3.50;99.90;;;;;;4997097;28;20210;-83
2021/12/21 18:46:03;;;;;;;762.13;707.80;;;-3.50;99.90;;;;;;4996565;28;20203;-84
2021/12/21 18:48:30;;;;;;;756.97;702.92;;;-3.50;99.90;;;;;;4996560;28;20211;-83
2021/12/21 18:50:57;;;;;;;742.33;689.30;;;-3.40;99.90;;;;;;4995218;28;20191;-83
2021/12/21 18:53:24;;;;;;;761.10;706.20;;;-3.50;99.90;;;;;;4993322;28;20202;-83
2021/12/21 18:55:51;;;;;;;768.22;712.00;;;-3.60;99.90;;;;;;4987243;28;20466;-84
2021/12/21 18:58:17;;;;;;;755.92;701.03;;;-3.50;99.90;;;;;;4988146;28;20590;-83
2021/12/21 19:00:49;;;;;;;755.25;698.70;;;-3.60;99.90;;;;;;4988468;28;20283;-84
2021/12/21 19:03:24;;;;;;;751.38;697.58;;;-3.40;99.90;;;;;;4995741;28;20199;-84
2021/12/21 19:05:51;;;;;;;777.47;721.95;;;-3.40;99.90;;;;;;4988408;28;20230;-82
2021/12/21 19:08:23;;;;;;;766.80;711.63;;;-3.30;99.90;;;;;;4990885;28;20596;-84
2021/12/21 19:10:51;;;;;;;777.92;721.13;;;-3.30;99.90;;;;;;4991883;28;20216;-84
2021/12/21 19:13:18;;;;;;;753.83;699.08;;;-3.30;99.90;;;;;;4976351;28;20212;-83
2021/12/21 19:15:49;;;;;;;752.63;697.58;;;-3.30;99.90;;;;;;4979244;28;20302;-85
2021/12/21 19:18:18;;;;;;;746.88;693.42;;;-3.40;99.90;;;;;;4981483;28;20207;-84
2021/12/21 19:20:45;;;;;;;749.38;695.72;;;-3.40;99.90;;;;;;4976278;28;20232;-84
2021/12/21 19:23:12;;;;;;;767.83;712.53;;;-3.50;99.90;;;;;;5035205;23;20657;-83
2021/12/21 19:25:41;;;;;;;749.80;694.72;;;-3.50;99.90;;;;;;5030866;28;20198;-83
2021/12/21 19:28:09;;;;;;;763.45;706.47;;;-3.60;99.90;;;;;;5013173;28;20203;-82
2021/12/21 19:30:37;;;;;;;746.38;690.72;;;-3.70;99.90;;;;;;5012880;28;20199;-83
2021/12/21 19:33:07;;;;;;;736.60;682.38;;;-3.60;99.90;;;;;;5011910;28;20235;-83
2021/12/21 19:35:34;;;;;;;729.45;674.60;;;-3.70;99.90;;;;;;5013506;28;20668;-83
2021/12/21 19:38:02;;;;;;;741.35;687.20;;;-3.60;99.90;;;;;;5011939;28;20290;-83
2021/12/21 19:40:29;;;;;;;747.63;692.67;;;-3.60;99.90;;;;;;5031762;28;20194;-84
2021/12/21 19:42:56;;;;;;;742.47;687.83;;;-3.60;99.90;;;;;;5032460;28;20276;-83